Neptune Avra — 9HKH6 — position and weather

sailwx.info

Track history (hours):
 
Tides and Currents Weather Stations Pressure Air Temp Water Temp Dewpoint Dewpoint Depression Visibility Wind Speed Wind Dir Waves Ship Positions

Neptune Avra

Last reported at 2014-Oct-01 17:13 UTC. Time now 2014-Oct-02 00:37 UTC.
Position N 36°53' E 005°53'.

Length 155 m; draft 6.5 m.

Type: Cargo ship. MMSI: 248598000.

Date/timePositionNaut miles runAvg speedWind from/ knotsBaromVisibWave heightAir tempDewpointWater temp
2014-Oct-01 17:13N 36°53' E 005°53'36610.7
2014-Sep-30 07:05N 36°55' E 013°31'918.0
2014-Sep-30 06:34N 36°53' E 013°42'1817.6
2014-Sep-30 05:34N 36°48' E 014°03'1817.7
2014-Sep-30 04:34N 36°44' E 014°25'1918.4
2014-Sep-30 03:33N 36°38' E 014°47'  
2014-Sep-25 23:32N 35°53' E 022°41'1916.3
2014-Sep-25 22:23N 35°39' E 022°57'1416.0
2014-Sep-25 21:32N 35°30' E 023°09'40416.1
2014-Sep-24 20:20N 31°23' E 029°33'1416.0
2014-Sep-24 19:27N 31°14' E 029°46'52 2.6
2014-Sep-23 23:30N 31°58' E 029°12'6314.8
2014-Sep-23 19:15N 32°50' E 028°30'2714.6
2014-Sep-23 17:25N 33°13' E 028°13'34 8.6
2014-Sep-23 13:27N 33°41' E 027°51'1415.9
2014-Sep-23 12:33N 33°53' E 027°41'9916.1
2014-Sep-23 06:24N 35°15' E 026°34'1414.6
2014-Sep-23 05:25N 35°26' E 026°23'1714.8
2014-Sep-23 04:17N 35°37' E 026°08'1114.8
2014-Sep-23 03:33N 35°45' E 025°58'1514.9
2014-Sep-23 02:33N 35°55' E 025°45'1515.0
2014-Sep-23 01:33N 36°05' E 025°31'1515.3
2014-Sep-23 00:33N 36°16' E 025°18'1515.0
2014-Sep-22 23:33N 36°25' E 025°03'1514.7
2014-Sep-22 22:33N 36°34' E 024°49'1515.0
2014-Sep-22 21:33N 36°48' E 024°41'1514.8
2014-Sep-22 20:33N 36°60' E 024°30'1615.2
2014-Sep-22 19:31N 37°12' E 024°17'1515.5
2014-Sep-22 18:32N 37°24' E 024°05'1515.0
2014-Sep-22 17:33N 37°34' E 023°52'1414.5
2014-Sep-22 16:33N 37°45' E 023°39'1312.6
2014-Sep-22 15:31N 37°57' E 023°36'0 0.1
2014-Sep-22 14:31N 37°58' E 023°37'0 0.0
2014-Sep-22 13:31N 37°58' E 023°37'0 0.0
2014-Sep-22 12:31N 37°58' E 023°37'0 0.0
2014-Sep-22 11:31N 37°58' E 023°37'0 0.0
2014-Sep-22 10:33N 37°58' E 023°37'7 6.9
2014-Sep-22 09:33N 37°51' E 023°38'1616.4
2014-Sep-22 08:33N 37°35' E 023°43'1918.2
2014-Sep-22 07:31N 37°17' E 023°35'1818.3
2014-Sep-22 06:33N 37°01' E 023°27'1817.6
2014-Sep-22 05:32N 36°43' E 023°21'1717.4
2014-Sep-22 04:33N 36°27' E 023°16'  
Track history (hours):
 
Tides and Currents Weather Stations Pressure Air Temp Water Temp Dewpoint Dewpoint Depression Visibility Wind Speed Wind Dir Waves Ship Positions

Neptune Avra

Last reported at 2014-Oct-01 17:13 UTC. Time now 2014-Oct-02 00:37 UTC.
Position N 36°53' E 005°53'.

Length 155 m; draft 6.5 m.

Type: Cargo ship. MMSI: 248598000.

Date/timePositionNaut miles runAvg speedWind from/ knotsBaromVisibWave heightAir tempDewpointWater temp
2014-Oct-01 17:13N 36°53' E 005°53'36610.7
2014-Sep-30 07:05N 36°55' E 013°31'918.0
2014-Sep-30 06:34N 36°53' E 013°42'1817.6
2014-Sep-30 05:34N 36°48' E 014°03'1817.7
2014-Sep-30 04:34N 36°44' E 014°25'1918.4
2014-Sep-30 03:33N 36°38' E 014°47'  
2014-Sep-25 23:32N 35°53' E 022°41'1916.3
2014-Sep-25 22:23N 35°39' E 022°57'1416.0
2014-Sep-25 21:32N 35°30' E 023°09'40416.1
2014-Sep-24 20:20N 31°23' E 029°33'1416.0
2014-Sep-24 19:27N 31°14' E 029°46'52 2.6
2014-Sep-23 23:30N 31°58' E 029°12'6314.8
2014-Sep-23 19:15N 32°50' E 028°30'2714.6
2014-Sep-23 17:25N 33°13' E 028°13'34 8.6
2014-Sep-23 13:27N 33°41' E 027°51'1415.9
2014-Sep-23 12:33N 33°53' E 027°41'9916.1
2014-Sep-23 06:24N 35°15' E 026°34'1414.6
2014-Sep-23 05:25N 35°26' E 026°23'1714.8
2014-Sep-23 04:17N 35°37' E 026°08'1114.8
2014-Sep-23 03:33N 35°45' E 025°58'1514.9
2014-Sep-23 02:33N 35°55' E 025°45'1515.0
2014-Sep-23 01:33N 36°05' E 025°31'1515.3
2014-Sep-23 00:33N 36°16' E 025°18'1515.0
2014-Sep-22 23:33N 36°25' E 025°03'1514.7
2014-Sep-22 22:33N 36°34' E 024°49'1515.0
2014-Sep-22 21:33N 36°48' E 024°41'1514.8
2014-Sep-22 20:33N 36°60' E 024°30'1615.2
2014-Sep-22 19:31N 37°12' E 024°17'1515.5
2014-Sep-22 18:32N 37°24' E 024°05'1515.0
2014-Sep-22 17:33N 37°34' E 023°52'1414.5
2014-Sep-22 16:33N 37°45' E 023°39'1312.6
2014-Sep-22 15:31N 37°57' E 023°36'0 0.1
2014-Sep-22 14:31N 37°58' E 023°37'0 0.0
2014-Sep-22 13:31N 37°58' E 023°37'0 0.0
2014-Sep-22 12:31N 37°58' E 023°37'0 0.0
2014-Sep-22 11:31N 37°58' E 023°37'0 0.0
2014-Sep-22 10:33N 37°58' E 023°37'7 6.9
2014-Sep-22 09:33N 37°51' E 023°38'1616.4
2014-Sep-22 08:33N 37°35' E 023°43'1918.2
2014-Sep-22 07:31N 37°17' E 023°35'1818.3
2014-Sep-22 06:33N 37°01' E 023°27'1817.6
2014-Sep-22 05:32N 36°43' E 023°21'1717.4
2014-Sep-22 04:33N 36°27' E 023°16'  

Dump ship's entire track history